Terminal Aerodrome Forecast
Issued by NWS Shreveport, LA

Home | Current Version | Previous Version | Text Only | Print | Product List | Glossary On
Versions: 1 2 3 4 5 6 7 8 9 10 11 12 13 14 15 16 17 18 19 20 21 22 23 24
000
FTUS44 KSHV 220536 AAA
TAFMLU
TAF AMD
KMLU 220536Z 2206/2306 24007KT P6SM VCSH SCT025 SCT100 BKN250
      TEMPO 2206/2208 2SM BR
     FM220800 24010KT P6SM VCSH BKN120 BKN250
      TEMPO 2208/2212 25014G22KT 5SM -SHRA BR BKN080
     FM221200 23008KT P6SM VCSH BKN080 BKN250
     FM221500 23012KT P6SM VCSH BKN100 BKN250
     FM221800 26015G25KT P6SM VCTS BKN040CB BKN100 BKN250
     FM230200 31018G28KT P6SM BKN035=

USA.gov is the U.S. government's official web portal to all federal, state and local government web resources and services.